Bookmark and Share
Track history (hours):
 

Drifting buoy 46762

Last reported at 2013-Dec-25 04:00 UTC. Time now 2014-Apr-23 07:22 UTC.
Position N 63°52' W 168°37'.
Warning: this ship's position is months out of date.

Barometer 1025.8 mb

NotesDate/timePositionNaut miles runAvg speedWind from/ knotsBaromVisibWave heightAir tempDewpointWater temp
2013-Dec-25 04:00N 63°52' W 168°37'0 0.0 1025.8
2013-Dec-25 02:00N 63°52' W 168°37'3 0.4 1026.1
2013-Dec-24 19:00N 63°52' W 168°30'0 0.3 1027.0 -1.9
2013-Dec-24 18:00N 63°52' W 168°30'1 0.6 1027.3 -1.8
2013-Dec-24 16:00N 63°53' W 168°28'0 0.4 1027.7 -1.8
2013-Dec-24 15:00N 63°53' W 168°27'0 0.2 1028.5 -1.8
2013-Dec-24 14:00N 63°53' W 168°26'0 0.2 1030.0 -1.8
2013-Dec-24 13:00N 63°53' W 168°26'0 0.4 1031.4 -1.8
2013-Dec-24 12:00N 63°53' W 168°25'3 0.8 1031.8 -1.8
2013-Dec-24 08:00N 63°52' W 168°18'0 0.0 1034.2 -1.8
2013-Dec-24 07:00N 63°52' W 168°18'0 0.4 1035.2 -1.8
2013-Dec-24 06:00N 63°52' W 168°19'1 1.2 1036.4 -1.8
2013-Dec-24 05:00N 63°51' W 168°16'0 0.4 1037.3 -1.8
2013-Dec-24 04:00N 63°52' W 168°17'1 0.2 1037.5 -1.8
2013-Dec-24 01:00N 63°52' W 168°18'0 0.1 1040.0 -1.8
2013-Dec-24 00:00N 63°53' W 168°18'0 0.2 1041.2 -1.8
2013-Dec-23 23:00N 63°52' W 168°17'0 0.1 1040.8 -1.8
2013-Dec-23 22:00N 63°52' W 168°17'0 0.0 1040.5 -1.8
2013-Dec-23 19:00N 63°52' W 168°17'0 0.2 1042.7 -1.8
2013-Dec-23 18:00N 63°52' W 168°17'0 0.1 1043.6 -1.7
2013-Dec-23 17:00N 63°52' W 168°17'0 0.1 1044.7 -1.7
2013-Dec-23 16:00N 63°52' W 168°17'0 0.2 1045.5 -1.7
2013-Dec-23 15:00N 63°52' W 168°17'1 0.4 1046.1 -1.7
2013-Dec-23 12:00N 63°53' W 168°19'1 0.5 1024.2 -1.8
2013-Dec-23 09:00N 63°53' W 168°22'0 0.5 1022.7 -1.7
2013-Dec-23 08:00N 63°53' W 168°22'0 0.3 1022.3 -1.7
2013-Dec-23 07:00N 63°53' W 168°22'1 0.5 1024.1 -1.7
2013-Dec-23 06:00N 63°53' W 168°21'1 0.5 1023.7 -1.7
2013-Dec-23 04:00N 63°54' W 168°22'1 1.1 1022.5 -1.7
2013-Dec-23 03:00N 63°53' W 168°25'1 0.6 1022.6 -1.7
2013-Dec-23 02:00N 63°53' W 168°26'1 1.1 1023.6 -1.7
2013-Dec-23 01:00N 63°54' W 168°28'0 0.3 1023.1 -1.7
2013-Dec-23 00:00N 63°53' W 168°29'1 0.6 1022.6 -1.7
2013-Dec-22 23:00N 63°54' W 168°30'1 1.0 1022.7 -1.7
2013-Dec-22 22:00N 63°53' W 168°32'0 0.2 1022.6 -1.6
2013-Dec-22 20:00N 63°53' W 168°32'0 0.2 1022.8 -1.6
2013-Dec-22 19:00N 63°53' W 168°32'1 0.7 1022.6 -1.6
2013-Dec-22 18:00N 63°53' W 168°34'0 0.3 1022.4 -1.6
2013-Dec-22 17:00N 63°53' W 168°33'1 0.5 1022.1 -1.6
2013-Dec-22 16:00N 63°53' W 168°32'0 0.5 1022.0 -1.6
2013-Dec-22 15:00N 63°53' W 168°31'1 0.9 1023.0 -1.6
2013-Dec-22 14:00N 63°54' W 168°30'0 0.0 1022.8 -1.6
2013-Dec-22 13:00N 63°54' W 168°30'1 1.3 1022.3 -1.6
2013-Dec-22 12:00N 63°53' W 168°33'1 0.5 1022.1 -1.6
2013-Dec-22 10:00N 63°53' W 168°35'1 0.6 1022.0 -1.5
2013-Dec-22 09:00N 63°53' W 168°34'0 0.1 1022.2 -1.5
2013-Dec-22 08:00N 63°53' W 168°34'0 0.4 1022.1 -1.5
2013-Dec-22 07:00N 63°53' W 168°34'1 0.9 1021.7 -1.5
2013-Dec-22 06:00N 63°53' W 168°32'0 0.4 1021.6 -1.5
2013-Dec-22 05:00N 63°53' W 168°33'0 0.3 1022.7 -1.5
2013-Dec-22 04:00N 63°53' W 168°33'1 0.5 1022.2 -1.5
2013-Dec-22 03:00N 63°53' W 168°34'0 0.1 1021.4 -1.5
2013-Dec-22 02:00N 63°53' W 168°34'1 0.5 1021.3 -1.5
2013-Dec-22 01:00N 63°53' W 168°35'1 0.6 1021.4 -1.5
2013-Dec-22 00:00N 63°54' W 168°36'0 0.1 1021.5 -1.5
2013-Dec-21 21:00N 63°54' W 168°37'0 0.1 1021.7 -1.5
2013-Dec-21 19:00N 63°54' W 168°37'0 0.0 1021.4 -1.4
2013-Dec-21 18:00N 63°54' W 168°37'0 0.1 1021.4 -1.4
2013-Dec-21 17:00N 63°54' W 168°37'0 0.4 1021.4 -1.4
2013-Dec-21 16:00N 63°54' W 168°36'2 0.8 1021.4 -1.4
2013-Dec-21 14:00N 63°55' W 168°38'1 0.6 1021.4 -1.4
2013-Dec-21 13:00N 63°56' W 168°38'1 1.0 1031.2 -1.4
2013-Dec-21 12:00N 63°57' W 168°38'1 0.5 1037.5 -1.4
2013-Dec-21 10:00N 63°57' W 168°40'1 0.8 1031.6 -1.4
2013-Dec-21 09:00N 63°57' W 168°39'1 0.4 1031.2 -1.4
2013-Dec-21 07:00N 63°58' W 168°37'0 0.1 1029.8 -1.3
2013-Dec-21 06:00N 63°58' W 168°37'0 0.3 1027.8 -1.3
2013-Dec-21 05:00N 63°58' W 168°37'0 0.3 1031.7 -1.3
2013-Dec-21 04:00N 63°58' W 168°37'0 0.4 1033.8 -1.3
2013-Dec-21 03:00N 63°59' W 168°37'0 0.1 1034.5 -1.3
2013-Dec-21 02:00N 63°59' W 168°37'1 0.9 1034.6 -1.3
2013-Dec-21 01:00N 63°60' W 168°37'0 0.4 1044.5 -1.3
2013-Dec-21 00:00N 64°00' W 168°38'0 0.3 1044.7 -1.3
2013-Dec-20 23:00N 64°00' W 168°37'1 0.3 1044.2 -1.3
2013-Dec-20 21:00N 64°01' W 168°38'1 0.6 1044.6 -1.3
2013-Dec-20 19:00N 64°02' W 168°37'0 0.0 1044.2 -1.3
2013-Dec-20 18:00N 64°02' W 168°37'0 0.5 1044.2 -1.2
2013-Dec-20 17:00N 64°02' W 168°37'1 1.4 1044.2 -1.2
2013-Dec-20 16:00N 64°02' W 168°35'1 1.0 1044.2 -1.2
2013-Dec-20 15:00N 64°03' W 168°34'0 0.1 1043.8 -1.2
2013-Dec-20 14:00N 64°03' W 168°34'3 1.4 1043.4 -1.2
2013-Dec-20 12:00N 64°06' W 168°34'0 0.0 1041.8 -1.2
2013-Dec-20 11:00N 64°06' W 168°34'0 0.0 1048.8 -1.2
2013-Dec-20 10:00N 64°06' W 168°34'0 0.2 1047.8 -1.2
2013-Dec-20 09:00N 64°06' W 168°33'1 0.8 1044.1 -1.2
2013-Dec-20 08:00N 64°07' W 168°33'0 0.2 1037.4 -1.2
2013-Dec-20 07:00N 64°07' W 168°33'0 0.4 1031.1 -1.1
2013-Dec-20 06:00N 64°07' W 168°33'1 1.1 1034.7 -1.1
2013-Dec-20 05:00N 64°08' W 168°30'1 0.6 1049.7 -1.1
2013-Dec-20 03:00N 64°09' W 168°32'1 0.7 1038.6 -1.1
2013-Dec-20 02:00N 64°09' W 168°33'0 0.4 1024.7 -1.1
2013-Dec-20 01:00N 64°10' W 168°33'1 0.5 1036.2 -1.1
2013-Dec-19 23:00N 64°10' W 168°35'1 0.6 1037.0 -1.1
2013-Dec-19 21:00N 64°11' W 168°36'0 0.0 1010.4 -1.0
2013-Dec-19 20:00N 64°11' W 168°36'1 0.4 1011.3 -1.0
2013-Dec-19 18:00N 64°12' W 168°37'1 1.3 1009.1 -1.0
2013-Dec-19 17:00N 64°12' W 168°34'1 0.7 1009.4 -1.0
2013-Dec-19 16:00N 64°13' W 168°34'0 0.3 1010.8 -1.0
2013-Dec-19 15:00N 64°13' W 168°34'1 1.3 1010.3 -1.0
2013-Dec-19 14:00N 64°14' W 168°32'1 0.8 1011.0 -1.0
2013-Dec-19 13:00N 64°13' W 168°34'2 2.0 1011.1 -1.0
2013-Dec-19 12:00N 64°15' W 168°32'0 0.0 1011.3 -1.0
2013-Dec-19 10:00N 64°15' W 168°32'1 1.3 1011.8 -0.9
2013-Dec-19 09:00N 64°14' W 168°34'1 0.5 1011.9 -0.9
2013-Dec-19 08:00N 64°14' W 168°33'0 0.3 1012.4 -0.9
2013-Dec-19 07:00N 64°14' W 168°33'0 0.3 1012.7 -0.9
2013-Dec-19 06:00N 64°14' W 168°33'0 0.1 1013.0 -0.9
2013-Dec-19 05:00N 64°14' W 168°32'0 0.2 1013.1 -0.9
2013-Dec-19 04:00N 64°14' W 168°32'0 0.2 1013.0 -0.9
2013-Dec-19 03:00N 64°14' W 168°33'0 0.2 1013.4 -0.9
2013-Dec-19 02:00N 64°14' W 168°33'0 0.2 1013.9 -0.8
2013-Dec-19 01:00N 64°14' W 168°33'0 0.4 1015.1 -0.9
2013-Dec-19 00:00N 64°14' W 168°34'0 0.3 1015.8 -0.8
2013-Dec-18 23:00N 64°14' W 168°34'1 0.7 1016.9 -0.8
2013-Dec-18 22:00N 64°14' W 168°36'0 0.1 1017.4 -0.8
2013-Dec-18 20:00N 64°14' W 168°35'1 0.5 1017.9 -0.8
2013-Dec-18 18:00N 64°13' W 168°36'0 0.5 1017.6 -0.8
2013-Dec-18 17:00N 64°13' W 168°35'0 0.2 1017.3 -0.8
2013-Dec-18 16:00N 64°13' W 168°35'0 0.4 1017.7 -0.8
2013-Dec-18 15:00N 64°13' W 168°35'1 0.3 1017.4 -0.8
2013-Dec-18 13:00N 64°12' W 168°34'1 1.2 1017.8 -0.8
2013-Dec-18 12:00N 64°13' W 168°36'1 0.6 1017.7 -0.8
2013-Dec-18 11:00N 64°12' W 168°36'1 0.4 1017.5 -0.8
2013-Dec-18 09:00N 64°13' W 168°37'1 0.9 1016.9 -0.7
2013-Dec-18 08:00N 64°12' W 168°37'1 0.5 1016.8 -0.7
2013-Dec-18 07:00N 64°12' W 168°38'0 0.1 1016.7 -0.7
2013-Dec-18 06:00N 64°12' W 168°38'0 0.4 1016.2 -0.8
2013-Dec-18 05:00N 64°12' W 168°39'1 0.7 1023.8 -0.8
2013-Dec-18 04:00N 64°12' W 168°37'1 1.3 1019.2 -0.7
2013-Dec-18 03:00N 64°11' W 168°38'0 0.3 1017.0 -0.8
2013-Dec-18 02:00N 64°11' W 168°39'1 0.4 1018.2 -0.7
2013-Dec-18 00:00N 64°10' W 168°40'1 0.8 1017.2 -0.8
2013-Dec-17 23:00N 64°10' W 168°42'0 0.0 1016.9 -0.8
2013-Dec-17 22:00N 64°10' W 168°42'1 0.4 1017.8 -0.7
2013-Dec-17 20:00N 64°10' W 168°44'0 0.4 1018.7 -0.7
2013-Dec-17 19:00N 64°10' W 168°44'0 0.4 1018.5 -0.7
2013-Dec-17 18:00N 64°09' W 168°45'0 0.2 1018.7 -0.7
2013-Dec-17 16:00N 64°09' W 168°45'0 0.4 1019.1 -0.7
2013-Dec-17 15:00N 64°09' W 168°45'0 0.4 1019.2 -0.7
2013-Dec-17 14:00N 64°08' W 168°45'1 0.6 1019.5 -0.7
2013-Dec-17 13:00N 64°09' W 168°45'1 0.9 1019.5 -0.7
2013-Dec-17 12:00N 64°08' W 168°46'1 0.9 1020.1 -0.7
2013-Dec-17 11:00N 64°08' W 168°48'1 0.3 1020.7 -0.7
2013-Dec-17 09:00N 64°08' W 168°49'1 0.9 1021.5 -0.7
2013-Dec-17 08:00N 64°07' W 168°52'1 0.6 1021.7 -0.7
2013-Dec-17 07:00N 64°08' W 168°51'1 1.2 1021.9 -0.7
2013-Dec-17 06:00N 64°07' W 168°53'0 0.2 1021.9 -0.7
2013-Dec-17 05:00N 64°07' W 168°53'1 0.8 1021.7 -0.7
2013-Dec-17 04:00N 64°07' W 168°54'0 0.3 1022.2 -0.7
2013-Dec-17 03:00N 64°06' W 168°54'1 0.5 1022.9 -0.7
2013-Dec-17 02:00N 64°06' W 168°55'1 0.8 1022.9 -0.7
2013-Dec-17 01:00N 64°05' W 168°56'0 0.2 1023.0 -0.7
2013-Dec-17 00:00N 64°05' W 168°57'0 0.4 1023.7 -0.7
2013-Dec-16 23:00N 64°05' W 168°57'1 0.7 1024.5 -0.7
2013-Dec-16 22:00N 64°05' W 168°59'0 0.3 1025.0 -0.7
2013-Dec-16 21:00N 64°05' W 168°59'1 0.4 1025.5 -0.7
2013-Dec-16 19:00N 64°05' W 169°01'0 0.4 1025.7 -0.7
2013-Dec-16 18:00N 64°05' W 169°01'0 0.0 1025.7 -0.7
2013-Dec-16 17:00N 64°05' W 169°01'0 0.2 1025.8 -0.7
2013-Dec-16 16:00N 64°05' W 169°02'1 0.9 1026.2 -0.6
2013-Dec-16 15:00N 64°04' W 169°00'0 0.2 1026.0 -0.6
2013-Dec-16 14:00N 64°04' W 169°00'1 0.9 1026.5 -0.6
2013-Dec-16 13:00N 64°05' W 168°59'1 1.1 1026.8 -0.6
2013-Dec-16 12:00N 64°04' W 169°01'0 0.0 1026.9 -0.6
2013-Dec-16 09:00N 64°04' W 169°01'0 0.1 1027.6 -0.7
2013-Dec-16 08:00N 64°04' W 169°01'0 0.3 1027.3 -0.7
2013-Dec-16 07:00N 64°04' W 169°02'0 0.3 1027.5 -0.6
2013-Dec-16 06:00N 64°04' W 169°03'1 0.8 1027.4 -0.6
2013-Dec-16 05:00N 64°05' W 169°04'1 0.6 1027.2 -0.6
2013-Dec-16 04:00N 64°04' W 169°04'0 0.1 1027.0 -0.6
2013-Dec-16 03:00N 64°05' W 169°03'1 0.3 1027.0 -0.6
2013-Dec-16 01:00N 64°05' W 169°02'0 0.0 1026.3 -0.6
2013-Dec-16 00:00N 64°05' W 169°02'1 0.4 1025.8 -0.6
2013-Dec-15 21:00N 64°06' W 169°04'1 1.0 1024.3 -0.6
2013-Dec-15 20:00N 64°06' W 169°06'0 0.5 1024.0 -0.6
2013-Dec-15 19:00N 64°07' W 169°06'0 0.3 1022.8 -0.6
2013-Dec-15 18:00N 64°07' W 169°07'0 0.3 1022.3 -0.6
2013-Dec-15 17:00N 64°07' W 169°06'1 0.8 1021.9 -0.5
2013-Dec-15 16:00N 64°07' W 169°08'0 0.3 1021.1 -0.5
2013-Dec-15 15:00N 64°08' W 169°07'2 0.8 1020.5 -0.5
2013-Dec-15 13:00N 64°09' W 169°05'0 0.0 1019.5 -0.5
2013-Dec-15 12:00N 64°09' W 169°05'2 1.1 1019.0 -0.5
2013-Dec-15 10:00N 64°09' W 169°10'2 1.5 1017.9 -0.5
2013-Dec-15 09:00N 64°10' W 169°08'2 0.6 1017.3 -0.5
2013-Dec-15 06:00N 64°12' W 169°10'1 0.9 1016.0 -0.4
2013-Dec-15 05:00N 64°13' W 169°11'1 1.0 1015.7 -0.4
2013-Dec-15 04:00N 64°13' W 169°12'   1015.4 -0.4

Dump ship's entire track history

sailing weather and tide predictions

Buoy 46762